createdAt,value
2022-11-25T00:00:33.370Z,100561.00
2022-11-25T00:03:18.469Z,100561.22
2022-11-25T00:06:14.470Z,100561.72
2022-11-25T00:09:08.217Z,100556.03
2022-11-25T00:11:53.630Z,100540.28
2022-11-25T00:14:38.519Z,100533.59
2022-11-25T00:17:23.556Z,100533.47
2022-11-25T00:20:09.360Z,100535.50
2022-11-25T00:22:54.475Z,100524.06
2022-11-25T00:25:39.753Z,100531.25
2022-11-25T00:28:30.240Z,100532.84
2022-11-25T00:31:21.610Z,100527.56
2022-11-25T00:34:12.281Z,100526.44
2022-11-25T00:36:57.426Z,100522.06
2022-11-25T00:39:42.580Z,100525.69
2022-11-25T00:42:27.876Z,100523.75
2022-11-25T00:45:12.948Z,100519.75
2022-11-25T00:47:57.757Z,100513.00
2022-11-25T00:50:42.697Z,100523.19
2022-11-25T00:53:30.463Z,100520.69
2022-11-25T00:56:15.298Z,100513.88
2022-11-25T00:59:00.258Z,100521.88
2022-11-25T01:01:46.697Z,100521.63
2022-11-25T01:04:32.395Z,100509.78
2022-11-25T01:07:17.876Z,100509.91
2022-11-25T01:10:03.471Z,100508.09
2022-11-25T01:12:48.760Z,100513.09
2022-11-25T01:15:37.325Z,100500.41
2022-11-25T01:18:22.850Z,100503.75
2022-11-25T01:21:10.569Z,100499.34
2022-11-25T01:23:56.049Z,100503.63
2022-11-25T01:26:42.063Z,100502.88
2022-11-25T01:29:27.022Z,100509.28
2022-11-25T01:32:12.224Z,100510.34
2022-11-25T01:34:57.437Z,100511.75
2022-11-25T01:37:42.421Z,100508.66
2022-11-25T01:40:27.496Z,100506.88
2022-11-25T01:43:15.688Z,100503.22
2022-11-25T01:46:31.105Z,100510.31
2022-11-25T01:49:36.848Z,100501.03
2022-11-25T01:52:42.968Z,100505.69
2022-11-25T01:55:33.394Z,100500.03
2022-11-25T01:58:24.500Z,100492.88
2022-11-25T02:01:10.215Z,100501.41
2022-11-25T02:03:58.508Z,100489.69
2022-11-25T02:06:53.485Z,100496.78
2022-11-25T02:09:42.211Z,100496.22
2022-11-25T02:12:28.709Z,100492.50
2022-11-25T02:15:15.248Z,100483.97
2022-11-25T02:18:00.279Z,100482.25
2022-11-25T02:20:45.523Z,100477.72
2022-11-25T02:23:43.471Z,100482.03
2022-11-25T02:26:28.678Z,100471.03
2022-11-25T02:29:14.074Z,100470.34
2022-11-25T02:31:59.365Z,100471.44
2022-11-25T02:34:48.143Z,100463.53
2022-11-25T02:37:33.671Z,100465.81
2022-11-25T02:40:18.874Z,100463.19
2022-11-25T02:43:04.100Z,100459.13
2022-11-25T02:45:56.772Z,100467.47
2022-11-25T02:51:47.866Z,100457.34
2022-11-25T02:54:32.794Z,100465.22
2022-11-25T02:57:18.316Z,100459.16
2022-11-25T03:00:04.896Z,100462.34
2022-11-25T03:02:53.230Z,100457.13
2022-11-25T03:05:38.783Z,100446.44
2022-11-25T03:08:23.907Z,100441.94
2022-11-25T03:11:09.156Z,100444.53
2022-11-25T03:13:54.699Z,100440.78
2022-11-25T03:16:40.097Z,100438.28
2022-11-25T03:19:25.656Z,100440.84
2022-11-25T03:22:10.784Z,100444.47
2022-11-25T03:24:56.244Z,100446.84
2022-11-25T03:27:42.175Z,100443.09
2022-11-25T03:30:28.700Z,100441.31
2022-11-25T03:33:13.592Z,100440.84
2022-11-25T03:35:58.737Z,100444.22
2022-11-25T03:38:44.358Z,100439.22
2022-11-25T03:41:29.674Z,100437.66
2022-11-25T03:44:15.008Z,100438.72
2022-11-25T03:47:00.277Z,100428.34
2022-11-25T03:49:45.596Z,100434.50
2022-11-25T03:52:30.928Z,100442.53
2022-11-25T03:55:15.813Z,100431.31
2022-11-25T03:58:01.328Z,100431.41
2022-11-25T04:00:46.133Z,100429.69
2022-11-25T04:03:31.509Z,100424.75
2022-11-25T04:06:16.702Z,100416.78
2022-11-25T04:09:01.845Z,100419.59
2022-11-25T04:11:46.811Z,100425.78
2022-11-25T04:14:32.197Z,100433.97
2022-11-25T04:17:17.603Z,100423.78
2022-11-25T04:20:04.016Z,100431.66
2022-11-25T04:22:48.904Z,100427.34
2022-11-25T04:25:34.802Z,100435.22
2022-11-25T04:28:19.694Z,100442.28
2022-11-25T04:31:08.994Z,100438.94
2022-11-25T04:33:54.191Z,100438.28
2022-11-25T04:36:39.058Z,100444.50
2022-11-25T04:39:24.105Z,100446.13
2022-11-25T04:42:09.240Z,100458.56
2022-11-25T04:45:20.946Z,100447.16
2022-11-25T04:47:59.829Z,100460.94
2022-11-25T04:50:45.311Z,100458.56
2022-11-25T04:53:30.443Z,100456.91
2022-11-25T04:56:19.346Z,100461.22
2022-11-25T04:59:04.360Z,100466.56
2022-11-25T05:01:52.094Z,100473.97
2022-11-25T05:04:37.472Z,100477.22
2022-11-25T05:07:26.326Z,100481.03
2022-11-25T05:10:11.695Z,100487.84
2022-11-25T05:12:56.875Z,100492.22
2022-11-25T05:15:41.684Z,100481.47
2022-11-25T05:18:26.499Z,100481.50
2022-11-25T05:21:11.350Z,100485.28
2022-11-25T05:23:56.697Z,100485.28
2022-11-25T05:26:41.663Z,100498.94
2022-11-25T05:29:26.686Z,100499.28
2022-11-25T05:32:12.231Z,100505.63
2022-11-25T05:34:57.163Z,100510.94
2022-11-25T05:37:42.525Z,100509.06
2022-11-25T05:40:27.383Z,100515.94
2022-11-25T05:43:12.425Z,100518.66
2022-11-25T05:45:57.477Z,100509.13
2022-11-25T05:48:42.468Z,100523.91
2022-11-25T05:51:28.364Z,100521.31
2022-11-25T05:54:14.067Z,100519.28
2022-11-25T05:56:59.314Z,100518.09
2022-11-25T05:59:44.408Z,100508.66
2022-11-25T06:02:29.544Z,100513.06
2022-11-25T06:05:15.008Z,100526.25
2022-11-25T06:08:00.236Z,100522.56
2022-11-25T06:10:45.785Z,100524.25
2022-11-25T06:13:30.808Z,100527.00
2022-11-25T06:16:18.707Z,100525.97
2022-11-25T06:19:04.706Z,100533.00
2022-11-25T06:21:49.783Z,100534.09
2022-11-25T06:24:35.095Z,100533.09
2022-11-25T06:27:20.671Z,100536.59
2022-11-25T06:30:06.622Z,100540.91
2022-11-25T06:32:51.934Z,100542.59
2022-11-25T06:35:40.276Z,100542.66
2022-11-25T06:38:28.253Z,100548.72
2022-11-25T06:41:14.042Z,100551.16
2022-11-25T06:44:02.152Z,100543.47
2022-11-25T06:46:47.530Z,100547.88
2022-11-25T06:49:32.942Z,100555.50
2022-11-25T06:52:17.852Z,100548.81
2022-11-25T06:55:03.803Z,100554.84
2022-11-25T06:57:48.736Z,100549.56
2022-11-25T07:00:34.328Z,100554.84
2022-11-25T07:03:21.448Z,100569.56
2022-11-25T07:06:07.045Z,100565.22
2022-11-25T07:08:52.969Z,100570.31
2022-11-25T07:11:40.011Z,100561.84
2022-11-25T07:14:25.523Z,100574.94
2022-11-25T07:17:12.359Z,100575.16
2022-11-25T07:19:57.785Z,100585.22
2022-11-25T07:22:42.812Z,100582.69
2022-11-25T07:25:30.816Z,100591.25
2022-11-25T07:28:16.034Z,100592.19
2022-11-25T07:34:13.787Z,100610.44
2022-11-25T07:36:59.259Z,100607.09
2022-11-25T07:39:44.585Z,100612.38
2022-11-25T07:42:29.431Z,100614.44
2022-11-25T07:45:15.008Z,100623.16
2022-11-25T07:48:02.703Z,100626.75
2022-11-25T07:50:48.340Z,100633.66
2022-11-25T07:53:33.291Z,100641.50
2022-11-25T07:56:19.207Z,100642.28
2022-11-25T07:59:05.111Z,100646.75
2022-11-25T08:01:52.720Z,100646.88
2022-11-25T08:04:37.881Z,100657.59
2022-11-25T08:07:23.369Z,100659.25
2022-11-25T08:10:09.238Z,100660.91
2022-11-25T08:12:54.393Z,100672.25
2022-11-25T08:15:39.593Z,100666.53
2022-11-25T08:18:25.354Z,100674.25
2022-11-25T08:21:12.702Z,100675.16
2022-11-25T08:23:58.061Z,100683.03
2022-11-25T08:26:43.816Z,100693.44
2022-11-25T08:29:31.174Z,100701.22
2022-11-25T08:32:19.518Z,100696.03
2022-11-25T08:35:06.968Z,100691.03
2022-11-25T08:37:52.368Z,100698.16
2022-11-25T08:40:37.610Z,100700.75
2022-11-25T08:43:29.055Z,100702.63
2022-11-25T08:46:21.165Z,100704.41
2022-11-25T08:49:08.515Z,100702.72
2022-11-25T08:51:54.051Z,100711.31
2022-11-25T08:54:38.947Z,100718.25
2022-11-25T08:57:24.258Z,100717.38
2022-11-25T09:00:10.564Z,100719.13
2022-11-25T09:02:55.631Z,100717.56
2022-11-25T09:05:43.189Z,100722.63
2022-11-25T09:08:28.849Z,100729.72
2022-11-25T09:11:14.966Z,100737.38
2022-11-25T09:13:59.972Z,100739.19
2022-11-25T09:16:45.368Z,100739.19
2022-11-25T09:19:30.738Z,100744.34
2022-11-25T09:22:16.161Z,100748.13
2022-11-25T09:25:01.668Z,100750.75
2022-11-25T09:27:47.662Z,100743.13
2022-11-25T09:30:33.115Z,100745.00
2022-11-25T09:33:19.320Z,100751.19
2022-11-25T09:36:04.632Z,100748.63
2022-11-25T09:38:50.735Z,100753.06
2022-11-25T09:42:01.536Z,100753.09
2022-11-25T09:45:02.993Z,100759.41
2022-11-25T09:48:26.810Z,100751.91
2022-11-25T09:51:22.609Z,100752.78
2022-11-25T09:54:32.592Z,100739.91
2022-11-25T09:57:29.893Z,100741.00
2022-11-25T10:00:20.542Z,100753.88
2022-11-25T10:03:43.323Z,100747.31
2022-11-25T10:06:33.026Z,100756.91
2022-11-25T10:09:23.786Z,100749.22
2022-11-25T10:12:38.423Z,100755.28
2022-11-25T10:15:32.556Z,100756.38
2022-11-25T10:18:32.207Z,100752.16
2022-11-25T10:21:17.604Z,100751.81
2022-11-25T10:24:04.607Z,100765.13
2022-11-25T10:26:57.224Z,100754.22
2022-11-25T10:29:43.256Z,100758.66
2022-11-25T10:32:36.827Z,100763.63
2022-11-25T10:35:30.074Z,100749.06
2022-11-25T10:38:24.272Z,100751.53
2022-11-25T10:41:15.659Z,100765.41
2022-11-25T10:44:01.052Z,100758.56
2022-11-25T10:47:16.829Z,100764.78
2022-11-25T10:50:07.954Z,100758.09
2022-11-25T10:52:53.373Z,100760.63
2022-11-25T10:56:04.224Z,100758.25
2022-11-25T10:58:49.742Z,100757.44
2022-11-25T11:01:34.641Z,100756.00
2022-11-25T11:04:20.796Z,100767.41
2022-11-25T11:07:09.384Z,100760.53
2022-11-25T11:10:06.928Z,100765.94
2022-11-25T11:13:03.354Z,100763.34
2022-11-25T11:15:48.958Z,100757.94
2022-11-25T11:18:37.087Z,100747.84
2022-11-25T11:21:29.997Z,100753.88
2022-11-25T11:24:33.119Z,100758.31
2022-11-25T11:27:25.000Z,100761.16
2022-11-25T11:30:10.487Z,100752.75
2022-11-25T11:33:02.404Z,100759.56
2022-11-25T11:36:02.110Z,100753.66
2022-11-25T11:38:54.679Z,100759.63
2022-11-25T11:41:45.481Z,100759.69
2022-11-25T11:44:56.863Z,100762.25
2022-11-25T11:48:25.440Z,100751.19
2022-11-25T11:51:25.544Z,100753.34
2022-11-25T11:54:18.499Z,100756.84
2022-11-25T11:57:21.071Z,100751.03
2022-11-25T12:00:11.930Z,100765.09
2022-11-25T12:03:16.863Z,100763.00
2022-11-25T12:06:05.653Z,100753.84
2022-11-25T12:08:59.087Z,100736.44
2022-11-25T12:11:49.907Z,100727.00
2022-11-25T12:14:35.414Z,100733.03
2022-11-25T12:17:30.544Z,100738.97
2022-11-25T12:20:17.484Z,100746.81
2022-11-25T12:23:09.719Z,100745.09
2022-11-25T12:26:06.088Z,100743.63
2022-11-25T12:28:57.969Z,100743.81
2022-11-25T12:31:56.254Z,100727.50
2022-11-25T12:34:48.885Z,100718.19
2022-11-25T12:37:39.425Z,100725.81
2022-11-25T12:40:31.256Z,100740.97
2022-11-25T12:43:34.750Z,100738.25
2022-11-25T12:46:43.210Z,100727.72
2022-11-25T12:49:32.653Z,100742.72
2022-11-25T12:52:35.996Z,100736.53
2022-11-25T12:55:26.543Z,100739.88
2022-11-25T12:58:41.872Z,100742.34
2022-11-25T13:01:48.352Z,100740.00
2022-11-25T13:04:52.066Z,100746.78
2022-11-25T13:08:11.215Z,100764.31
2022-11-25T13:11:47.918Z,100802.16
2022-11-25T13:15:18.195Z,100817.63
2022-11-25T13:18:20.179Z,100822.22
2022-11-25T13:21:16.125Z,100818.28
2022-11-25T13:24:01.596Z,100820.84
2022-11-25T13:26:50.236Z,100839.16
2022-11-25T13:29:41.922Z,100808.25
2022-11-25T13:32:38.547Z,100816.94
2022-11-25T13:35:31.422Z,100813.81
2022-11-25T13:38:37.565Z,100823.22
2022-11-25T13:41:48.005Z,100831.59
2022-11-25T13:44:46.466Z,100848.94
2022-11-25T13:47:37.583Z,100842.66
2022-11-25T13:50:36.823Z,100835.97
2022-11-25T13:53:35.737Z,100827.19
2022-11-25T13:56:20.647Z,100815.00
2022-11-25T13:59:11.605Z,100840.16
2022-11-25T14:02:31.000Z,100848.75
2022-11-25T14:05:28.172Z,100879.50
2022-11-25T14:08:35.034Z,100891.19
2022-11-25T14:11:38.685Z,100921.09
2022-11-25T14:14:51.765Z,100928.66
2022-11-25T14:17:49.033Z,100924.25
2022-11-25T14:20:46.377Z,100940.53
2022-11-25T14:23:49.637Z,100934.44
2022-11-25T14:26:49.624Z,100935.28
2022-11-25T14:29:43.465Z,100935.22
2022-11-25T14:32:35.401Z,100936.06
2022-11-25T14:35:26.903Z,100946.41
2022-11-25T14:38:25.007Z,100948.94
2022-11-25T14:41:47.660Z,100960.22
2022-11-25T14:44:52.709Z,100960.13
2022-11-25T14:47:39.317Z,100968.75
2022-11-25T14:50:40.774Z,100972.25
2022-11-25T14:53:27.654Z,100980.75
2022-11-25T14:56:14.823Z,100985.19
2022-11-25T14:59:01.095Z,100975.50
2022-11-25T15:01:54.745Z,100984.03
2022-11-25T15:04:41.434Z,101000.34
2022-11-25T15:07:31.072Z,101001.06
2022-11-25T15:10:51.640Z,101008.88
2022-11-25T15:13:45.726Z,101005.41
2022-11-25T15:16:36.835Z,101009.72
2022-11-25T15:19:30.608Z,101012.09
2022-11-25T15:22:23.402Z,101011.16
2022-11-25T15:25:15.122Z,101017.09
2022-11-25T15:28:00.532Z,101016.19
2022-11-25T15:31:19.939Z,101017.91
2022-11-25T15:34:13.472Z,101024.56
2022-11-25T15:37:01.911Z,101027.09
2022-11-25T15:39:46.973Z,101035.63
2022-11-25T15:42:33.963Z,101041.78
2022-11-25T15:45:21.374Z,101050.25
2022-11-25T15:48:06.896Z,101045.06
2022-11-25T15:50:52.221Z,101048.38
2022-11-25T15:53:37.721Z,101056.09
2022-11-25T15:56:26.393Z,101054.09
2022-11-25T15:59:51.353Z,101059.84
2022-11-25T16:02:38.102Z,101074.34
2022-11-25T16:05:35.645Z,101079.41
2022-11-25T16:08:30.274Z,101086.13
2022-11-25T16:11:18.487Z,101093.03
2022-11-25T16:14:26.800Z,101091.28
2022-11-25T16:17:13.276Z,101091.84
2022-11-25T16:19:58.484Z,101089.31
2022-11-25T16:22:43.883Z,101099.56
2022-11-25T16:25:29.272Z,101111.41
2022-11-25T16:28:22.810Z,101114.66
2022-11-25T16:31:15.912Z,101109.44
2022-11-25T16:34:13.196Z,101115.97
2022-11-25T16:36:58.144Z,101121.03
2022-11-25T16:39:46.324Z,101134.03
2022-11-25T16:42:33.684Z,101137.34
2022-11-25T16:45:27.157Z,101154.84
2022-11-25T16:48:16.899Z,101158.47
2022-11-25T16:51:02.406Z,101156.50
2022-11-25T16:53:48.125Z,101146.19
2022-11-25T16:56:36.528Z,101155.44
2022-11-25T16:59:36.758Z,101173.88
2022-11-25T17:02:22.991Z,101174.59
2022-11-25T17:05:26.539Z,101177.91
2022-11-25T17:08:12.698Z,101188.00
2022-11-25T17:10:59.392Z,101194.94
2022-11-25T17:13:47.952Z,101193.91
2022-11-25T17:16:33.389Z,101200.69
2022-11-25T17:19:18.499Z,101205.03
2022-11-25T17:22:13.367Z,101210.41
2022-11-25T17:24:59.913Z,101213.00
2022-11-25T17:27:45.425Z,101206.03
2022-11-25T17:30:30.674Z,101219.72
2022-11-25T17:33:19.337Z,101222.19
2022-11-25T17:36:05.830Z,101233.28
2022-11-25T17:38:50.841Z,101237.66
2022-11-25T17:41:40.861Z,101235.91
2022-11-25T17:44:29.107Z,101241.06
2022-11-25T17:47:16.554Z,101244.63
2022-11-25T17:50:01.892Z,101247.31
2022-11-25T17:52:47.763Z,101255.13
2022-11-25T17:58:49.096Z,101272.91
2022-11-25T18:01:34.604Z,101269.19
2022-11-25T18:04:24.846Z,101271.88
2022-11-25T18:07:10.832Z,101280.66
2022-11-25T18:09:56.251Z,101286.56
2022-11-25T18:12:43.209Z,101285.44
2022-11-25T18:15:31.333Z,101286.59
2022-11-25T18:18:22.910Z,101288.03
2022-11-25T18:21:09.176Z,101299.78
2022-11-25T18:23:54.311Z,101311.56
2022-11-25T18:26:46.955Z,101325.41
2022-11-25T18:29:32.581Z,101326.41
2022-11-25T18:32:17.486Z,101328.28
2022-11-25T18:35:05.766Z,101329.97
2022-11-25T18:37:51.313Z,101327.38
2022-11-25T18:40:39.724Z,101338.53
2022-11-25T18:43:26.944Z,101340.06
2022-11-25T18:46:13.858Z,101334.59
2022-11-25T18:48:59.090Z,101357.19
2022-11-25T18:51:44.375Z,101356.00
2022-11-25T18:54:29.524Z,101368.06
2022-11-25T18:57:15.273Z,101362.72
2022-11-25T19:00:31.708Z,101374.59
2022-11-25T19:03:16.751Z,101376.31
2022-11-25T19:06:02.253Z,101386.78
2022-11-25T19:08:53.782Z,101385.00
2022-11-25T19:11:49.429Z,101397.91
2022-11-25T19:14:39.755Z,101400.47
2022-11-25T19:17:25.367Z,101402.06
2022-11-25T19:20:18.707Z,101405.59
2022-11-25T19:23:21.864Z,101408.16
2022-11-25T19:26:14.375Z,101408.94
2022-11-25T19:29:05.756Z,101413.09
2022-11-25T19:31:52.089Z,101413.84
2022-11-25T19:34:41.106Z,101423.41
2022-11-25T19:37:26.186Z,101424.88
2022-11-25T19:40:20.070Z,101431.97
2022-11-25T19:43:05.159Z,101424.16
2022-11-25T19:45:50.633Z,101439.63
2022-11-25T19:48:37.712Z,101444.97
2022-11-25T19:51:25.122Z,101451.03
2022-11-25T19:54:15.414Z,101458.72
2022-11-25T19:57:00.528Z,101461.09
2022-11-25T19:59:46.466Z,101462.66
2022-11-25T20:02:31.799Z,101467.28
2022-11-25T20:05:20.566Z,101471.63
2022-11-25T20:08:05.935Z,101476.78
2022-11-25T20:10:52.502Z,101478.44
2022-11-25T20:13:37.736Z,101486.06
2022-11-25T20:16:28.099Z,101492.06
2022-11-25T20:19:18.001Z,101494.81
2022-11-25T20:22:03.711Z,101500.69
2022-11-25T20:24:48.875Z,101510.84
2022-11-25T20:27:35.654Z,101512.59
2022-11-25T20:30:28.612Z,101517.88
2022-11-25T20:33:17.731Z,101520.56
2022-11-25T20:36:19.511Z,101524.19
2022-11-25T20:39:07.417Z,101524.72
2022-11-25T20:41:52.765Z,101527.31
2022-11-25T20:44:38.718Z,101530.75
2022-11-25T20:47:24.035Z,101538.47
2022-11-25T20:50:12.542Z,101541.81
2022-11-25T20:52:57.616Z,101545.28
2022-11-25T20:55:43.550Z,101552.88
2022-11-25T20:58:31.132Z,101559.56
2022-11-25T21:01:17.164Z,101563.94
2022-11-25T21:04:02.212Z,101565.44
2022-11-25T21:06:49.581Z,101571.25
2022-11-25T21:09:35.708Z,101570.19
2022-11-25T21:12:21.236Z,101580.75
2022-11-25T21:15:15.255Z,101577.13
2022-11-25T21:18:00.387Z,101587.25
2022-11-25T21:20:46.439Z,101590.44
2022-11-25T21:23:37.326Z,101607.28
2022-11-25T21:26:26.499Z,101602.81
2022-11-25T21:29:16.919Z,101607.59
2022-11-25T21:32:02.391Z,101609.72
2022-11-25T21:34:47.864Z,101613.84
2022-11-25T21:37:35.251Z,101612.25
2022-11-25T21:40:40.520Z,101617.91
2022-11-25T21:43:46.147Z,101629.06
2022-11-25T21:46:31.162Z,101631.00
2022-11-25T21:49:16.420Z,101637.09
2022-11-25T21:52:01.978Z,101628.44
2022-11-25T21:54:47.416Z,101636.06
2022-11-25T21:57:34.598Z,101633.72
2022-11-25T22:00:25.316Z,101631.97
2022-11-25T22:03:16.058Z,101636.81
2022-11-25T22:06:01.352Z,101636.28
2022-11-25T22:08:46.804Z,101635.38
2022-11-25T22:11:35.478Z,101648.75
2022-11-25T22:14:25.038Z,101640.75
2022-11-25T22:17:17.301Z,101648.63
2022-11-25T22:20:03.360Z,101649.22
2022-11-25T22:22:50.652Z,101658.50
2022-11-25T22:25:35.596Z,101667.66
2022-11-25T22:28:23.717Z,101685.81
2022-11-25T22:31:12.479Z,101688.28
2022-11-25T22:33:57.969Z,101697.31
2022-11-25T22:36:46.750Z,101693.25
2022-11-25T22:39:31.677Z,101689.44
2022-11-25T22:42:26.441Z,101689.75
2022-11-25T22:45:24.505Z,101700.03
2022-11-25T22:48:18.252Z,101696.91
2022-11-25T22:51:04.187Z,101711.00
2022-11-25T22:53:49.622Z,101709.88
2022-11-25T22:56:34.858Z,101712.44
2022-11-25T22:59:23.286Z,101715.16
2022-11-25T23:02:32.494Z,101730.13
2022-11-25T23:05:30.593Z,101731.09
2022-11-25T23:08:21.300Z,101730.13
2022-11-25T23:11:07.174Z,101735.28
2022-11-25T23:13:52.578Z,101746.16
2022-11-25T23:16:38.882Z,101759.41
2022-11-25T23:19:24.146Z,101761.16
2022-11-25T23:22:11.350Z,101757.47
2022-11-25T23:24:56.635Z,101764.19
2022-11-25T23:27:42.144Z,101776.00
2022-11-25T23:30:27.269Z,101773.41
2022-11-25T23:33:19.062Z,101775.50
2022-11-25T23:36:09.056Z,101786.19
2022-11-25T23:38:57.188Z,101796.94
2022-11-25T23:41:42.398Z,101797.66
2022-11-25T23:44:30.679Z,101801.22
2022-11-25T23:47:18.451Z,101802.97
2022-11-25T23:50:04.587Z,101811.31
2022-11-25T23:52:51.200Z,101809.66
2022-11-25T23:55:38.713Z,101811.28
2022-11-25T23:58:24.416Z,101818.97
